Tasman Crusader — A8NQ7 — position and weather

sailwx.info

Track history (hours):
 
Tides and Currents Weather Stations Pressure Air Temp Water Temp Dewpoint Dewpoint Depression Visibility Wind Speed Wind Dir Waves Ship Positions

Tasman Crusader

Last reported at 2016-Dec-09 18:00 UTC. Time now 2016-Dec-11 00:22 UTC.
Position N 21°30' W 109°00'.

Length 186 m; draft 9.6 m.

Type: Ship (hazmat cat D). MMSI: 636091434.

Wind from 340 at 15 knots

Barometer 1017.0 mb
Air temperature 25.0 ° C
Visibility: greater than 10.8 NM
Dewpoint 19.9 ° C
Water temperature 26.0 ° C

Date/timePositionNaut miles runAvg speedWind from/ knotsBaromVisibWave heightAir tempDewpointWater temp
2016-Dec-09 18:00N 21°30' W 109°00'77117.3 340 / 151017.010.8 25.019.926.0
2016-Dec-07 21:27N 31°12' W 118°24'1616.8
2016-Dec-07 20:30N 31°26' W 118°35'3614.2
2016-Dec-07 18:00N 31°54' W 119°00'26517.0 330 / 181021.010.8 17.012.820.0
2016-Dec-07 02:24N 35°36' W 121°54'1416.5
2016-Dec-07 01:33N 35°49' W 122°01'1616.4
2016-Dec-07 00:33N 36°04' W 122°10'1616.3
2016-Dec-06 23:33N 36°18' W 122°19'1616.5
2016-Dec-06 22:33N 36°34' W 122°26'1615.7
2016-Dec-06 21:33N 36°48' W 122°33'1715.5
2016-Dec-06 20:28N 37°04' W 122°41'2915.5
2016-Dec-06 18:33N 37°34' W 122°44'1313.4
2016-Dec-06 17:34N 37°46' W 122°38'1413.7
2016-Dec-06 16:33N 37°48' W 122°20'1 0.9
2016-Dec-06 15:32N 37°48' W 122°19'0 0.0
2016-Dec-06 14:32N 37°48' W 122°19'0 0.0
2016-Dec-06 13:32N 37°48' W 122°19'0 0.0
2016-Dec-06 12:32N 37°48' W 122°19'0 0.0
2016-Dec-06 11:32N 37°48' W 122°19'0 0.0
2016-Dec-06 10:32N 37°48' W 122°19'0 0.0
2016-Dec-06 09:32N 37°48' W 122°19'0 0.0
2016-Dec-06 08:32N 37°48' W 122°19'0 0.0
2016-Dec-06 07:32N 37°48' W 122°19'0 0.0
2016-Dec-06 06:32N 37°48' W 122°19'0 0.0
2016-Dec-06 05:32N 37°48' W 122°19'0 0.0
2016-Dec-06 04:32N 37°48' W 122°19'0 0.0
2016-Dec-06 03:32N 37°48' W 122°19'0 0.0
2016-Dec-06 02:32N 37°48' W 122°19'0 0.0
2016-Dec-06 01:32N 37°48' W 122°19'0 0.0
2016-Dec-06 00:32N 37°48' W 122°19'2 1.6
2016-Dec-05 23:34N 37°48' W 122°21'1413.5
2016-Dec-05 22:33N 37°46' W 122°38'9 9.4
2016-Dec-05 21:33N 37°37' W 122°40'9 9.2
2016-Dec-05 20:33N 37°27' W 122°40'5 4.7
2016-Dec-05 19:29N 37°22' W 122°40'8 7.9
2016-Dec-05 18:32N 37°15' W 122°40'8 8.6
2016-Dec-05 17:33N 37°06' W 122°39'9 9.1
2016-Dec-05 16:33N 36°58' W 122°35'58 7.8
2016-Dec-05 09:11N 36°05' W 122°06'6 8.9
2016-Dec-05 08:33N 36°00' W 122°02'8 8.5
2016-Dec-05 07:33N 35°53' W 121°56'8 8.4
2016-Dec-05 06:33N 35°46' W 121°51'8 8.2
2016-Dec-05 05:33N 35°39' W 121°46'8 8.1
2016-Dec-05 04:33N 35°32' W 121°40'8 7.8
2016-Dec-05 03:33N 35°25' W 121°35'4 3.9
2016-Dec-05 02:33N 35°22' W 121°33'15 5.0
2016-Dec-04 23:33N 35°09' W 121°23'5 5.2
2016-Dec-04 22:33N 35°05' W 121°20'6 5.4
2016-Dec-04 21:32N 35°00' W 121°17'5 5.1
2016-Dec-04 20:33N 34°56' W 121°14'5 5.0
2016-Dec-04 19:33N 34°52' W 121°10'7 5.5
2016-Dec-04 18:19N 34°46' W 121°06'810.0
2016-Dec-04 17:33N 34°39' W 121°01'7210.3
2016-Dec-04 10:33N 34°10' W 119°42'1111.4
2016-Dec-04 09:33N 34°07' W 119°28'1111.4
2016-Dec-04 08:33N 34°04' W 119°15'1111.0
2016-Dec-04 07:33N 33°59' W 119°03'1111.2
2016-Dec-04 06:33N 33°53' W 118°52'1111.4
2016-Dec-04 05:33N 33°48' W 118°40'1111.0
2016-Dec-04 04:33N 33°42' W 118°28'1210.2
2016-Dec-04 03:22N 33°39' W 118°14'6 7.3
2016-Dec-04 02:33N 33°44' W 118°13'2 1.5
2016-Dec-04 01:20N 33°46' W 118°14'0 0.0
2016-Dec-04 00:23N 33°46' W 118°14'0 0.0
2016-Dec-03 22:29N 33°46' W 118°14'0 0.0
2016-Dec-03 21:23N 33°46' W 118°14'7 0.5
2016-Dec-03 08:22N 33°40' W 118°11'910.4
2016-Dec-03 07:29N 33°36' W 118°21'54 3.3
2016-Dec-02 15:05N 34°09' W 119°12'0 0.0
2016-Dec-02 02:14N 34°09' W 119°12'0 0.0
2016-Dec-02 00:32N 34°09' W 119°12'0 0.0
2016-Dec-01 23:26N 34°09' W 119°12'0 0.0
2016-Dec-01 22:32N 34°09' W 119°12'0 0.0
2016-Dec-01 21:20N 34°09' W 119°12'0 0.0
2016-Dec-01 20:20N 34°09' W 119°12'0 0.0
2016-Dec-01 19:29N 34°09' W 119°12'0 0.0
2016-Dec-01 17:20N 34°09' W 119°12'0 0.0
2016-Dec-01 16:29N 34°09' W 119°12'0 0.0
2016-Dec-01 14:23N 34°09' W 119°12'0 0.0
2016-Dec-01 09:20N 34°09' W 119°12'0 0.0
2016-Dec-01 05:20N 34°09' W 119°12'0 0.0
2016-Dec-01 03:32N 34°09' W 119°12'0 0.0
2016-Dec-01 02:26N 34°09' W 119°12'0 0.0
2016-Dec-01 01:26N 34°09' W 119°12'0 0.2
2016-Dec-01 00:33N 34°09' W 119°12'6 5.8
2016-Nov-30 23:34N 34°03' W 119°13'1111.2
2016-Nov-30 22:32N 33°57' W 119°01'1211.7
2016-Nov-30 21:33N 33°52' W 118°49'1411.7
2016-Nov-30 20:23N 33°45' W 118°34'2211.4
2016-Nov-30 18:25N 33°36' W 118°10'1011.7
2016-Nov-30 17:33N 33°26' W 118°05'1211.7
2016-Nov-30 16:34N 33°15' W 118°01'1211.9
2016-Nov-30 15:34N 33°04' W 117°55'1414.4
2016-Nov-30 14:33N 32°51' W 117°48'1514.6
2016-Nov-30 13:33N 32°38' W 117°41'1514.5
2016-Nov-30 12:33N 32°24' W 117°35'  
Track history (hours):
 
Tides and Currents Weather Stations Pressure Air Temp Water Temp Dewpoint Dewpoint Depression Visibility Wind Speed Wind Dir Waves Ship Positions

Tasman Crusader

Last reported at 2016-Dec-09 18:00 UTC. Time now 2016-Dec-11 00:22 UTC.
Position N 21°30' W 109°00'.

Length 186 m; draft 9.6 m.

Type: Ship (hazmat cat D). MMSI: 636091434.

Wind from 340 at 15 knots

Barometer 1017.0 mb
Air temperature 25.0 ° C
Visibility: greater than 10.8 NM
Dewpoint 19.9 ° C
Water temperature 26.0 ° C

Date/timePositionNaut miles runAvg speedWind from/ knotsBaromVisibWave heightAir tempDewpointWater temp
2016-Dec-09 18:00N 21°30' W 109°00'77117.3 340 / 151017.010.8 25.019.926.0
2016-Dec-07 21:27N 31°12' W 118°24'1616.8
2016-Dec-07 20:30N 31°26' W 118°35'3614.2
2016-Dec-07 18:00N 31°54' W 119°00'26517.0 330 / 181021.010.8 17.012.820.0
2016-Dec-07 02:24N 35°36' W 121°54'1416.5
2016-Dec-07 01:33N 35°49' W 122°01'1616.4
2016-Dec-07 00:33N 36°04' W 122°10'1616.3
2016-Dec-06 23:33N 36°18' W 122°19'1616.5
2016-Dec-06 22:33N 36°34' W 122°26'1615.7
2016-Dec-06 21:33N 36°48' W 122°33'1715.5
2016-Dec-06 20:28N 37°04' W 122°41'2915.5
2016-Dec-06 18:33N 37°34' W 122°44'1313.4
2016-Dec-06 17:34N 37°46' W 122°38'1413.7
2016-Dec-06 16:33N 37°48' W 122°20'1 0.9
2016-Dec-06 15:32N 37°48' W 122°19'0 0.0
2016-Dec-06 14:32N 37°48' W 122°19'0 0.0
2016-Dec-06 13:32N 37°48' W 122°19'0 0.0
2016-Dec-06 12:32N 37°48' W 122°19'0 0.0
2016-Dec-06 11:32N 37°48' W 122°19'0 0.0
2016-Dec-06 10:32N 37°48' W 122°19'0 0.0
2016-Dec-06 09:32N 37°48' W 122°19'0 0.0
2016-Dec-06 08:32N 37°48' W 122°19'0 0.0
2016-Dec-06 07:32N 37°48' W 122°19'0 0.0
2016-Dec-06 06:32N 37°48' W 122°19'0 0.0
2016-Dec-06 05:32N 37°48' W 122°19'0 0.0
2016-Dec-06 04:32N 37°48' W 122°19'0 0.0
2016-Dec-06 03:32N 37°48' W 122°19'0 0.0
2016-Dec-06 02:32N 37°48' W 122°19'0 0.0
2016-Dec-06 01:32N 37°48' W 122°19'0 0.0
2016-Dec-06 00:32N 37°48' W 122°19'2 1.6
2016-Dec-05 23:34N 37°48' W 122°21'1413.5
2016-Dec-05 22:33N 37°46' W 122°38'9 9.4
2016-Dec-05 21:33N 37°37' W 122°40'9 9.2
2016-Dec-05 20:33N 37°27' W 122°40'5 4.7
2016-Dec-05 19:29N 37°22' W 122°40'8 7.9
2016-Dec-05 18:32N 37°15' W 122°40'8 8.6
2016-Dec-05 17:33N 37°06' W 122°39'9 9.1
2016-Dec-05 16:33N 36°58' W 122°35'58 7.8
2016-Dec-05 09:11N 36°05' W 122°06'6 8.9
2016-Dec-05 08:33N 36°00' W 122°02'8 8.5
2016-Dec-05 07:33N 35°53' W 121°56'8 8.4
2016-Dec-05 06:33N 35°46' W 121°51'8 8.2
2016-Dec-05 05:33N 35°39' W 121°46'8 8.1
2016-Dec-05 04:33N 35°32' W 121°40'8 7.8
2016-Dec-05 03:33N 35°25' W 121°35'4 3.9
2016-Dec-05 02:33N 35°22' W 121°33'15 5.0
2016-Dec-04 23:33N 35°09' W 121°23'5 5.2
2016-Dec-04 22:33N 35°05' W 121°20'6 5.4
2016-Dec-04 21:32N 35°00' W 121°17'5 5.1
2016-Dec-04 20:33N 34°56' W 121°14'5 5.0
2016-Dec-04 19:33N 34°52' W 121°10'7 5.5
2016-Dec-04 18:19N 34°46' W 121°06'810.0
2016-Dec-04 17:33N 34°39' W 121°01'7210.3
2016-Dec-04 10:33N 34°10' W 119°42'1111.4
2016-Dec-04 09:33N 34°07' W 119°28'1111.4
2016-Dec-04 08:33N 34°04' W 119°15'1111.0
2016-Dec-04 07:33N 33°59' W 119°03'1111.2
2016-Dec-04 06:33N 33°53' W 118°52'1111.4
2016-Dec-04 05:33N 33°48' W 118°40'1111.0
2016-Dec-04 04:33N 33°42' W 118°28'1210.2
2016-Dec-04 03:22N 33°39' W 118°14'6 7.3
2016-Dec-04 02:33N 33°44' W 118°13'2 1.5
2016-Dec-04 01:20N 33°46' W 118°14'0 0.0
2016-Dec-04 00:23N 33°46' W 118°14'0 0.0
2016-Dec-03 22:29N 33°46' W 118°14'0 0.0
2016-Dec-03 21:23N 33°46' W 118°14'7 0.5
2016-Dec-03 08:22N 33°40' W 118°11'910.4
2016-Dec-03 07:29N 33°36' W 118°21'54 3.3
2016-Dec-02 15:05N 34°09' W 119°12'0 0.0
2016-Dec-02 02:14N 34°09' W 119°12'0 0.0
2016-Dec-02 00:32N 34°09' W 119°12'0 0.0
2016-Dec-01 23:26N 34°09' W 119°12'0 0.0
2016-Dec-01 22:32N 34°09' W 119°12'0 0.0
2016-Dec-01 21:20N 34°09' W 119°12'0 0.0
2016-Dec-01 20:20N 34°09' W 119°12'0 0.0
2016-Dec-01 19:29N 34°09' W 119°12'0 0.0
2016-Dec-01 17:20N 34°09' W 119°12'0 0.0
2016-Dec-01 16:29N 34°09' W 119°12'0 0.0
2016-Dec-01 14:23N 34°09' W 119°12'0 0.0
2016-Dec-01 09:20N 34°09' W 119°12'0 0.0
2016-Dec-01 05:20N 34°09' W 119°12'0 0.0
2016-Dec-01 03:32N 34°09' W 119°12'0 0.0
2016-Dec-01 02:26N 34°09' W 119°12'0 0.0
2016-Dec-01 01:26N 34°09' W 119°12'0 0.2
2016-Dec-01 00:33N 34°09' W 119°12'6 5.8
2016-Nov-30 23:34N 34°03' W 119°13'1111.2
2016-Nov-30 22:32N 33°57' W 119°01'1211.7
2016-Nov-30 21:33N 33°52' W 118°49'1411.7
2016-Nov-30 20:23N 33°45' W 118°34'2211.4
2016-Nov-30 18:25N 33°36' W 118°10'1011.7
2016-Nov-30 17:33N 33°26' W 118°05'1211.7
2016-Nov-30 16:34N 33°15' W 118°01'1211.9
2016-Nov-30 15:34N 33°04' W 117°55'1414.4
2016-Nov-30 14:33N 32°51' W 117°48'1514.6
2016-Nov-30 13:33N 32°38' W 117°41'1514.5
2016-Nov-30 12:33N 32°24' W 117°35'  

Dump ship's entire track history